Hlavní strana
METAR-TAF:

METAR-TAF

Letiště :

Lagos, Nigérie

zeměpisná šířka: 06-35N, zeměpisná délka: 003-20E, výška: 40 m

Aktuální stav počasí

Zpráva byla vytvořena před 38 minutami, v 09:00 UTC
Severoseverozápadní vítr 6 kt
Teplota 28°C
Vlhkost vzduchu 79%
Tlak 1013 hPa
Viditelnost: 5000 m
zákal

METAR: DNMM 240900Z 33006KT 5000 HZ NSC 28/24 Q1013 BECMG 6000 NSW

Čas: 10:38 (09:38 UTC)

Předpověď počasí

Zpráva byla vytvořena před 5 hodinami a 48 minutami, v 03:50 UTC
Předpověď platná od 24 v 06 UTC do 25 v 12 UTC
vítr z různých směrů 2 kt
Viditelnost: 5000 m
Skoro jasno ve výšce 900 ft
zákal
Dočasný
od 24 v 06 UTC do 24 v 07 UTC
Viditelnost: 3000 m
kouřmo
Změna
od 24 v 09 UTC do 24 v 11 UTC
Západní vítr 10 kt
Viditelnost: 8000 m
Oblačno až skoro zataženo ve výšce 1300 ft

TAF: DNMM 240350Z 2406/2512 VRB02KT 5000 HZ FEW009 TEMPO 2406/2407 3000 BR BECMG 2409/2411 28010KT 8000 NSW BKN013

Stav a předpovědi počasí z více než 4 000 letišť (zprávy METAR a TAF).

Červené a žluté tečky na mapě představují dostupné meteorologické stanice.

Když kurzor umístíte na tečku, zobrazí se název stanice.

Pak kliknutím zobrazíte stav a předpověď počasí.

Chcete-li změnit mapu, kliknutím na zelené tlačítko se znaménkem +mapu přiblížíte, kliknutím na zelené tlačítko se znaménkem – mapu oddálíte a kliknutím na zelené šipky přejdete na sousední mapy.


METAR-TAF: